Cenka — TCTG5 — position and weather

sailwx.info

Track history (hours):
 
Tides and Currents Weather Stations Pressure Air Temp Water Temp Dewpoint Dewpoint Depression Visibility Wind Speed Wind Dir Waves Ship Positions

Cenka

Last reported at 2016-Aug-22 21:31 UTC. Time now 2016-Aug-26 11:54 UTC.
Position N 45°46' E 030°56'.

Length 150 m; draft 4 m.

Type: Passenger vessel. MMSI: 271002610.

Date/timePositionNaut miles runAvg speedWind from/ knotsBaromVisibWave heightAir tempDewpointWater temp
2016-Aug-22 21:31N 45°46' E 030°56'29 8.7
2016-Aug-22 18:12N 46°14' E 030°46'6 8.5
2016-Aug-22 17:33N 46°19' E 030°42'3 0.2
2016-Aug-22 05:29N 46°21' E 030°39'1 1.0
2016-Aug-22 04:33N 46°20' E 030°40'5 4.8
2016-Aug-22 03:33N 46°17' E 030°45'8 8.1
2016-Aug-22 02:33N 46°09' E 030°48'8 8.2
2016-Aug-22 01:33N 46°01' E 030°52'  
2016-Aug-18 21:27N 45°42' E 030°57'38 9.4
2016-Aug-18 17:26N 46°19' E 030°42'  
Track history (hours):
 
Tides and Currents Weather Stations Pressure Air Temp Water Temp Dewpoint Dewpoint Depression Visibility Wind Speed Wind Dir Waves Ship Positions

Cenka

Last reported at 2016-Aug-22 21:31 UTC. Time now 2016-Aug-26 11:54 UTC.
Position N 45°46' E 030°56'.

Length 150 m; draft 4 m.

Type: Passenger vessel. MMSI: 271002610.

Date/timePositionNaut miles runAvg speedWind from/ knotsBaromVisibWave heightAir tempDewpointWater temp
2016-Aug-22 21:31N 45°46' E 030°56'29 8.7
2016-Aug-22 18:12N 46°14' E 030°46'6 8.5
2016-Aug-22 17:33N 46°19' E 030°42'3 0.2
2016-Aug-22 05:29N 46°21' E 030°39'1 1.0
2016-Aug-22 04:33N 46°20' E 030°40'5 4.8
2016-Aug-22 03:33N 46°17' E 030°45'8 8.1
2016-Aug-22 02:33N 46°09' E 030°48'8 8.2
2016-Aug-22 01:33N 46°01' E 030°52'  
2016-Aug-18 21:27N 45°42' E 030°57'38 9.4
2016-Aug-18 17:26N 46°19' E 030°42'  

Dump ship's entire track history